createdAt,value
2023-02-14T00:01:24.040Z,33.50
2023-02-14T00:03:51.011Z,33.50
2023-02-14T00:06:17.944Z,33.60
2023-02-14T00:08:45.616Z,33.60
2023-02-14T00:11:14.100Z,33.60
2023-02-14T00:14:01.287Z,33.60
2023-02-14T00:16:28.311Z,33.60
2023-02-14T00:19:03.912Z,33.60
2023-02-14T00:21:37.428Z,33.60
2023-02-14T00:24:17.765Z,33.80
2023-02-14T00:26:45.097Z,33.70
2023-02-14T00:29:16.877Z,33.70
2023-02-14T00:31:45.196Z,33.70
2023-02-14T00:34:12.650Z,33.70
2023-02-14T00:36:39.849Z,33.70
2023-02-14T00:39:09.628Z,33.70
2023-02-14T00:41:36.901Z,33.80
2023-02-14T00:44:04.748Z,33.70
2023-02-14T00:46:32.422Z,33.80
2023-02-14T00:48:59.591Z,33.70
2023-02-14T00:51:26.758Z,33.70
2023-02-14T00:53:54.302Z,33.70
2023-02-14T00:56:21.963Z,33.70
2023-02-14T00:58:49.299Z,33.80
2023-02-14T01:01:20.070Z,33.80
2023-02-14T01:03:47.509Z,33.80
2023-02-14T01:06:15.485Z,33.90
2023-02-14T01:08:42.543Z,33.80
2023-02-14T01:11:19.658Z,33.80
2023-02-14T01:13:48.777Z,33.80
2023-02-14T01:16:19.802Z,33.80
2023-02-14T01:18:47.421Z,33.90
2023-02-14T01:21:27.869Z,33.90
2023-02-14T01:23:58.740Z,33.90
2023-02-14T01:26:28.083Z,33.90
2023-02-14T01:28:56.047Z,33.90
2023-02-14T01:31:27.482Z,33.90
2023-02-14T01:33:55.659Z,34.10
2023-02-14T01:36:37.824Z,33.90
2023-02-14T01:39:11.006Z,34.20
2023-02-14T01:41:39.798Z,33.90
2023-02-14T01:44:08.087Z,33.90
2023-02-14T01:46:38.016Z,34.00
2023-02-14T01:49:33.946Z,34.00
2023-02-14T01:52:08.785Z,34.10
2023-02-14T01:54:46.949Z,34.00
2023-02-14T01:57:19.177Z,34.00
2023-02-14T02:00:17.612Z,34.00
2023-02-14T02:02:45.600Z,34.10
2023-02-14T02:05:14.091Z,34.00
2023-02-14T02:07:42.159Z,34.00
2023-02-14T02:10:10.113Z,34.00
2023-02-14T02:12:38.637Z,34.00
2023-02-14T02:15:07.684Z,34.10
2023-02-14T02:17:57.043Z,34.10
2023-02-14T02:20:38.866Z,34.30
2023-02-14T02:23:39.719Z,34.20
2023-02-14T02:26:28.235Z,34.30
2023-02-14T02:29:40.929Z,34.20
2023-02-14T02:32:47.992Z,35.10
2023-02-14T02:35:59.365Z,34.40
2023-02-14T02:38:57.299Z,34.30
2023-02-14T02:42:15.397Z,34.00
2023-02-14T02:45:03.642Z,34.30
2023-02-14T02:47:47.147Z,34.20
2023-02-14T02:50:52.929Z,34.30
2023-02-14T02:53:51.308Z,34.30
2023-02-14T02:56:49.844Z,34.30
2023-02-14T02:59:24.951Z,34.10
2023-02-14T03:02:15.240Z,34.20
2023-02-14T03:04:55.784Z,34.20
2023-02-14T03:07:39.398Z,34.30
2023-02-14T03:10:18.935Z,34.30
2023-02-14T03:13:03.901Z,34.40
2023-02-14T03:15:41.767Z,34.30
2023-02-14T03:18:36.266Z,34.40
2023-02-14T03:21:33.330Z,34.40
2023-02-14T03:24:27.390Z,34.40
2023-02-14T03:27:26.836Z,34.40
2023-02-14T03:30:36.719Z,34.40
2023-02-14T03:33:33.476Z,34.40
2023-02-14T03:36:21.553Z,34.30
2023-02-14T03:39:07.601Z,34.30
2023-02-14T03:41:42.696Z,34.30
2023-02-14T03:44:13.073Z,34.40
2023-02-14T03:46:47.336Z,34.40
2023-02-14T03:49:22.181Z,34.40
2023-02-14T03:51:55.021Z,34.30
2023-02-14T03:54:25.576Z,34.70
2023-02-14T03:57:19.512Z,34.30
2023-02-14T03:59:47.060Z,34.50
2023-02-14T04:02:33.112Z,34.30
2023-02-14T04:05:05.188Z,34.50
2023-02-14T04:07:32.174Z,34.40
2023-02-14T04:09:59.148Z,34.40
2023-02-14T04:12:37.089Z,34.40
2023-02-14T04:15:05.997Z,35.10
2023-02-14T04:17:51.854Z,34.40
2023-02-14T04:20:19.234Z,34.40
2023-02-14T04:22:46.485Z,34.40
2023-02-14T04:25:14.811Z,34.40
2023-02-14T04:27:42.120Z,34.50
2023-02-14T04:30:10.383Z,34.40
2023-02-14T04:32:37.288Z,34.50
2023-02-14T04:35:04.838Z,34.50
2023-02-14T04:37:31.841Z,34.50
2023-02-14T04:39:58.714Z,34.50
2023-02-14T04:42:25.889Z,34.50
2023-02-14T04:44:52.829Z,34.50
2023-02-14T04:47:19.856Z,34.50
2023-02-14T04:49:46.749Z,34.50
2023-02-14T04:52:13.777Z,34.60
2023-02-14T04:54:40.698Z,34.60
2023-02-14T04:57:07.613Z,34.20
2023-02-14T04:59:34.600Z,34.60
2023-02-14T05:02:01.595Z,34.50
2023-02-14T05:04:28.509Z,34.50
2023-02-14T05:06:55.334Z,34.50
2023-02-14T05:09:22.299Z,34.50
2023-02-14T05:11:49.154Z,34.50
2023-02-14T05:14:16.043Z,34.70
2023-02-14T05:16:43.150Z,34.60
2023-02-14T05:19:10.042Z,34.60
2023-02-14T05:21:37.022Z,34.60
2023-02-14T05:24:04.412Z,34.60
2023-02-14T05:26:31.531Z,34.60
2023-02-14T05:28:58.654Z,34.70
2023-02-14T05:31:25.691Z,34.60
2023-02-14T05:33:52.899Z,34.70
2023-02-14T05:36:19.991Z,34.60
2023-02-14T05:38:46.876Z,34.70
2023-02-14T05:41:13.752Z,34.70
2023-02-14T05:43:40.614Z,34.70
2023-02-14T05:46:07.606Z,34.70
2023-02-14T05:48:34.902Z,34.80
2023-02-14T05:51:08.646Z,34.80
2023-02-14T05:53:36.198Z,34.80
2023-02-14T05:56:03.674Z,34.70
2023-02-14T05:58:30.975Z,34.70
2023-02-14T06:00:59.180Z,34.70
2023-02-14T06:03:26.718Z,34.70
2023-02-14T06:05:53.604Z,34.70
2023-02-14T06:08:20.727Z,34.70
2023-02-14T06:10:47.607Z,34.70
2023-02-14T06:13:14.692Z,34.80
2023-02-14T06:15:41.704Z,34.70
2023-02-14T06:18:08.735Z,34.70
2023-02-14T06:20:36.160Z,34.70
2023-02-14T06:23:03.629Z,34.80
2023-02-14T06:25:30.682Z,34.80
2023-02-14T06:28:01.273Z,34.80
2023-02-14T06:30:28.480Z,34.90
2023-02-14T06:32:55.776Z,34.80
2023-02-14T06:35:23.010Z,34.90
2023-02-14T06:37:50.120Z,34.90
2023-02-14T06:40:17.153Z,35.10
2023-02-14T06:42:44.408Z,35.30
2023-02-14T06:45:11.747Z,35.50
2023-02-14T06:47:38.724Z,35.80
2023-02-14T06:50:06.752Z,35.90
2023-02-14T06:52:34.382Z,36.00
2023-02-14T06:55:01.825Z,36.10
2023-02-14T06:57:28.929Z,36.20
2023-02-14T06:59:55.915Z,36.30
2023-02-14T07:02:24.981Z,36.30
2023-02-14T07:04:52.369Z,36.20
2023-02-14T07:07:19.339Z,36.30
2023-02-14T07:09:46.398Z,36.30
2023-02-14T07:12:13.444Z,36.20
2023-02-14T07:14:40.436Z,36.10
2023-02-14T07:17:07.493Z,36.10
2023-02-14T07:19:35.360Z,36.20
2023-02-14T07:22:02.309Z,36.10
2023-02-14T07:24:29.374Z,36.10
2023-02-14T07:26:56.430Z,36.00
2023-02-14T07:29:23.496Z,36.00
2023-02-14T07:31:50.682Z,36.00
2023-02-14T07:34:17.743Z,35.90
2023-02-14T07:36:44.925Z,35.90
2023-02-14T07:39:11.968Z,35.90
2023-02-14T07:41:39.052Z,35.90
2023-02-14T07:44:06.002Z,35.80
2023-02-14T07:46:32.981Z,35.80
2023-02-14T07:48:59.873Z,35.70
2023-02-14T07:51:27.061Z,35.60
2023-02-14T07:53:54.005Z,35.70
2023-02-14T07:56:20.997Z,35.50
2023-02-14T07:58:49.804Z,35.40
2023-02-14T08:01:17.817Z,35.40
2023-02-14T08:03:47.001Z,35.30
2023-02-14T08:06:13.867Z,35.30
2023-02-14T08:08:40.825Z,35.20
2023-02-14T08:11:08.161Z,35.10
2023-02-14T08:13:35.076Z,35.10
2023-02-14T08:16:04.924Z,35.00
2023-02-14T08:18:38.845Z,35.10
2023-02-14T08:21:09.836Z,34.90
2023-02-14T08:23:38.069Z,34.90
2023-02-14T08:26:05.534Z,34.90
2023-02-14T08:28:33.336Z,34.90
2023-02-14T08:31:02.868Z,34.90
2023-02-14T08:33:30.358Z,34.90
2023-02-14T08:35:57.399Z,34.80
2023-02-14T08:38:24.505Z,34.80
2023-02-14T08:40:51.601Z,34.80
2023-02-14T08:43:18.632Z,34.90
2023-02-14T08:45:45.688Z,34.80
2023-02-14T08:48:13.604Z,34.80
2023-02-14T08:50:40.722Z,34.80
2023-02-14T08:53:11.244Z,34.90
2023-02-14T08:55:40.154Z,34.90
2023-02-14T08:58:07.906Z,34.90
2023-02-14T09:00:35.348Z,34.90
2023-02-14T09:03:05.485Z,34.90
2023-02-14T09:05:34.069Z,35.60
2023-02-14T09:08:03.371Z,35.00
2023-02-14T09:10:30.284Z,35.00
2023-02-14T09:12:57.193Z,35.00
2023-02-14T09:15:24.109Z,35.60
2023-02-14T09:17:52.056Z,35.00
2023-02-14T09:20:19.430Z,35.00
2023-02-14T09:22:48.678Z,35.00
2023-02-14T09:25:16.708Z,35.00
2023-02-14T09:27:43.963Z,35.00
2023-02-14T09:30:11.794Z,35.00
2023-02-14T09:32:38.702Z,35.00
2023-02-14T09:35:06.889Z,35.00
2023-02-14T09:37:33.745Z,35.00
2023-02-14T09:40:00.781Z,35.00
2023-02-14T09:43:04.962Z,35.00
2023-02-14T09:45:34.147Z,34.90
2023-02-14T09:48:33.462Z,35.00
2023-02-14T09:51:18.570Z,35.00
2023-02-14T09:54:12.622Z,35.00
2023-02-14T09:57:03.860Z,34.70
2023-02-14T09:59:57.201Z,34.60
2023-02-14T10:02:32.861Z,34.80
2023-02-14T10:05:27.595Z,34.00
2023-02-14T10:08:35.140Z,34.60
2023-02-14T10:11:16.968Z,34.70
2023-02-14T10:14:11.586Z,34.60
2023-02-14T10:16:48.548Z,34.70
2023-02-14T10:19:34.888Z,34.60
2023-02-14T10:22:16.317Z,34.50
2023-02-14T10:25:01.730Z,34.70
2023-02-14T10:27:45.099Z,34.60
2023-02-14T10:30:20.234Z,34.50
2023-02-14T10:33:22.744Z,34.60
2023-02-14T10:36:14.759Z,34.40
2023-02-14T10:38:53.359Z,34.50
2023-02-14T10:41:50.091Z,34.60
2023-02-14T10:45:05.612Z,34.50
2023-02-14T10:48:03.159Z,34.40
2023-02-14T10:50:55.059Z,33.70
2023-02-14T10:53:30.796Z,32.60
2023-02-14T10:56:08.926Z,33.30
2023-02-14T10:58:40.098Z,32.90
2023-02-14T11:01:17.233Z,33.20
2023-02-14T11:04:04.268Z,32.90
2023-02-14T11:06:31.493Z,33.00
2023-02-14T11:08:59.538Z,33.40
2023-02-14T11:11:45.418Z,32.70
2023-02-14T11:14:33.286Z,32.20
2023-02-14T11:17:30.813Z,30.90
2023-02-14T11:20:02.604Z,32.00
2023-02-14T11:22:35.611Z,32.00
2023-02-14T11:25:22.460Z,31.90
2023-02-14T11:28:02.826Z,31.90
2023-02-14T11:30:39.700Z,32.30
2023-02-14T11:33:13.622Z,32.40
2023-02-14T11:35:40.545Z,32.50
2023-02-14T11:38:34.015Z,32.50
2023-02-14T11:41:01.560Z,31.60
2023-02-14T11:43:39.650Z,32.30
2023-02-14T11:46:13.272Z,31.60
2023-02-14T11:48:59.303Z,31.60
2023-02-14T11:51:29.883Z,32.00
2023-02-14T11:54:04.930Z,31.60
2023-02-14T11:56:55.405Z,31.80
2023-02-14T11:59:35.490Z,31.00
2023-02-14T12:02:34.724Z,31.00
2023-02-14T12:05:32.143Z,31.40
2023-02-14T12:08:06.658Z,30.80
2023-02-14T12:10:36.098Z,31.30
2023-02-14T12:13:09.261Z,31.20
2023-02-14T12:15:43.361Z,30.70
2023-02-14T12:18:51.409Z,30.70
2023-02-14T12:21:44.041Z,30.30
2023-02-14T12:24:38.294Z,30.20
2023-02-14T12:28:04.134Z,30.00
2023-02-14T12:30:35.270Z,30.00
2023-02-14T12:33:02.332Z,30.30
2023-02-14T12:35:54.268Z,30.30
2023-02-14T12:38:46.156Z,29.80
2023-02-14T12:41:47.709Z,30.20
2023-02-14T12:44:48.160Z,29.20
2023-02-14T12:47:40.274Z,29.10
2023-02-14T12:51:06.241Z,29.20
2023-02-14T12:53:57.865Z,29.20
2023-02-14T12:56:49.165Z,29.60
2023-02-14T12:59:50.645Z,29.20
2023-02-14T13:03:06.616Z,28.90
2023-02-14T13:05:46.073Z,29.00
2023-02-14T13:09:02.348Z,29.10
2023-02-14T13:11:39.496Z,29.00
2023-02-14T13:14:24.849Z,29.20
2023-02-14T13:17:06.318Z,29.30
2023-02-14T13:19:36.363Z,29.30
2023-02-14T13:22:07.021Z,29.40
2023-02-14T13:24:43.626Z,29.30
2023-02-14T13:27:22.266Z,29.10
2023-02-14T13:30:25.604Z,29.10
2023-02-14T13:32:57.707Z,28.90
2023-02-14T13:35:29.128Z,29.10
2023-02-14T13:38:02.786Z,29.20
2023-02-14T13:40:32.182Z,29.20
2023-02-14T13:43:01.686Z,29.10
2023-02-14T13:45:40.554Z,28.70
2023-02-14T13:48:25.613Z,28.70
2023-02-14T13:51:10.487Z,28.70
2023-02-14T13:53:45.436Z,28.80
2023-02-14T13:56:12.251Z,28.80
2023-02-14T13:58:56.530Z,29.00
2023-02-14T14:01:40.657Z,28.80
2023-02-14T14:04:26.540Z,28.80
2023-02-14T14:07:05.641Z,28.80
2023-02-14T14:09:44.402Z,28.90
2023-02-14T14:12:26.623Z,28.90
2023-02-14T14:15:05.802Z,28.80
2023-02-14T14:18:14.350Z,28.70
2023-02-14T14:20:48.605Z,28.70
2023-02-14T14:23:45.223Z,28.70
2023-02-14T14:26:39.665Z,28.70
2023-02-14T14:29:21.605Z,28.60
2023-02-14T14:31:55.517Z,29.20
2023-02-14T14:34:27.902Z,28.80
2023-02-14T14:37:07.952Z,28.80
2023-02-14T14:39:36.656Z,28.80
2023-02-14T14:42:37.285Z,28.90
2023-02-14T14:45:27.552Z,28.80
2023-02-14T14:48:03.200Z,29.00
2023-02-14T14:50:35.221Z,29.00
2023-02-14T14:53:21.440Z,29.00
2023-02-14T14:55:52.070Z,29.00
2023-02-14T14:58:39.684Z,29.10
2023-02-14T15:01:14.255Z,29.00
2023-02-14T15:03:41.383Z,29.00
2023-02-14T15:06:19.063Z,29.10
2023-02-14T15:08:48.559Z,29.10
2023-02-14T15:11:58.054Z,29.10
2023-02-14T15:14:28.640Z,29.00
2023-02-14T15:17:05.337Z,29.00
2023-02-14T15:19:44.094Z,29.10
2023-02-14T15:22:36.234Z,29.10
2023-02-14T15:25:16.822Z,29.10
2023-02-14T15:27:44.070Z,29.10
2023-02-14T15:30:20.728Z,29.10
2023-02-14T15:32:50.565Z,29.10
2023-02-14T15:35:25.403Z,29.10
2023-02-14T15:37:53.652Z,29.20
2023-02-14T15:40:33.691Z,29.20
2023-02-14T15:43:18.257Z,29.40
2023-02-14T15:45:49.390Z,29.40
2023-02-14T15:48:29.189Z,29.30
2023-02-14T15:51:00.293Z,29.30
2023-02-14T15:53:58.432Z,29.30
2023-02-14T15:56:31.565Z,29.30
2023-02-14T15:59:07.371Z,29.30
2023-02-14T16:01:37.592Z,29.40
2023-02-14T16:04:08.489Z,29.30
2023-02-14T16:06:44.449Z,29.40
2023-02-14T16:09:29.535Z,29.40
2023-02-14T16:11:56.655Z,29.50
2023-02-14T16:14:35.663Z,29.50
2023-02-14T16:17:05.721Z,29.50
2023-02-14T16:19:48.248Z,29.50
2023-02-14T16:22:32.169Z,29.60
2023-02-14T16:24:59.574Z,29.70
2023-02-14T16:27:26.744Z,29.50
2023-02-14T16:29:53.835Z,29.60
2023-02-14T16:32:23.990Z,29.60
2023-02-14T16:34:54.488Z,29.70
2023-02-14T16:37:40.785Z,29.70
2023-02-14T16:40:15.096Z,29.70
2023-02-14T16:42:43.435Z,29.80
2023-02-14T16:45:19.084Z,29.80
2023-02-14T16:47:47.797Z,29.90
2023-02-14T16:50:15.813Z,29.80
2023-02-14T16:52:49.469Z,29.80
2023-02-14T16:55:20.158Z,29.80
2023-02-14T16:57:50.410Z,30.30
2023-02-14T17:00:17.823Z,29.90
2023-02-14T17:02:44.974Z,29.90
2023-02-14T17:05:12.162Z,29.90
2023-02-14T17:07:43.838Z,29.90
2023-02-14T17:10:19.033Z,30.00
2023-02-14T17:12:51.531Z,30.00
2023-02-14T17:15:22.338Z,30.00
2023-02-14T17:17:51.761Z,30.00
2023-02-14T17:20:22.034Z,30.00
2023-02-14T17:22:50.521Z,30.00
2023-02-14T17:25:17.714Z,30.00
2023-02-14T17:27:46.222Z,30.00
2023-02-14T17:30:14.923Z,30.00
2023-02-14T17:32:43.128Z,30.00
2023-02-14T17:35:10.850Z,30.00
2023-02-14T17:37:37.976Z,30.00
2023-02-14T17:40:06.025Z,30.00
2023-02-14T17:42:35.257Z,30.00
2023-02-14T17:45:03.838Z,30.00
2023-02-14T17:47:31.116Z,30.70
2023-02-14T17:49:58.268Z,30.10
2023-02-14T17:52:26.194Z,30.10
2023-02-14T17:54:53.392Z,30.10
2023-02-14T17:57:20.785Z,30.20
2023-02-14T17:59:47.921Z,30.20
2023-02-14T18:02:14.971Z,30.20
2023-02-14T18:04:41.915Z,30.30
2023-02-14T18:07:08.888Z,30.30
2023-02-14T18:09:36.055Z,30.30
2023-02-14T18:12:03.623Z,30.40
2023-02-14T18:14:31.500Z,30.50
2023-02-14T18:16:58.457Z,30.40
2023-02-14T18:19:25.578Z,30.40
2023-02-14T18:21:53.442Z,30.50
2023-02-14T18:24:20.625Z,30.50
2023-02-14T18:26:47.893Z,30.60
2023-02-14T18:29:15.100Z,30.60
2023-02-14T18:31:44.113Z,30.60
2023-02-14T18:34:11.162Z,30.60
2023-02-14T18:36:41.006Z,30.60
2023-02-14T18:39:09.183Z,30.70
2023-02-14T18:41:36.437Z,30.70
2023-02-14T18:44:03.826Z,30.70
2023-02-14T18:46:35.293Z,30.70
2023-02-14T18:49:06.075Z,30.80
2023-02-14T18:51:39.103Z,30.80
2023-02-14T18:54:06.903Z,30.80
2023-02-14T18:56:37.544Z,30.80
2023-02-14T18:59:08.745Z,30.90
2023-02-14T19:01:42.066Z,30.80
2023-02-14T19:04:12.202Z,30.90
2023-02-14T19:06:41.698Z,30.90
2023-02-14T19:09:16.178Z,30.90
2023-02-14T19:11:44.489Z,31.00
2023-02-14T19:14:12.721Z,31.00
2023-02-14T19:16:53.484Z,31.00
2023-02-14T19:19:20.771Z,31.20
2023-02-14T19:21:48.360Z,31.10
2023-02-14T19:24:16.968Z,31.10
2023-02-14T19:26:44.334Z,31.20
2023-02-14T19:29:15.648Z,31.20
2023-02-14T19:31:48.232Z,31.30
2023-02-14T19:34:18.850Z,31.30
2023-02-14T19:36:46.689Z,31.30
2023-02-14T19:39:14.730Z,31.20
2023-02-14T19:41:42.109Z,31.30
2023-02-14T19:44:13.885Z,31.30
2023-02-14T19:46:42.857Z,31.40
2023-02-14T19:49:16.338Z,31.40
2023-02-14T19:51:44.961Z,31.50
2023-02-14T19:54:13.168Z,31.40
2023-02-14T19:56:44.557Z,31.40
2023-02-14T19:59:15.296Z,31.50
2023-02-14T20:01:46.481Z,31.40
2023-02-14T20:04:22.061Z,31.50
2023-02-14T20:06:49.895Z,31.70
2023-02-14T20:09:18.514Z,31.60
2023-02-14T20:11:52.050Z,31.50
2023-02-14T20:14:50.146Z,31.60
2023-02-14T20:17:18.769Z,31.80
2023-02-14T20:19:45.882Z,31.60
2023-02-14T20:22:12.984Z,31.60
2023-02-14T20:24:40.202Z,31.70
2023-02-14T20:27:08.104Z,31.70
2023-02-14T20:29:35.280Z,31.70
2023-02-14T20:32:04.996Z,31.70
2023-02-14T20:34:32.364Z,31.80
2023-02-14T20:37:00.224Z,31.80
2023-02-14T20:39:31.960Z,31.90
2023-02-14T20:42:03.648Z,31.90
2023-02-14T20:44:31.454Z,31.80
2023-02-14T20:46:58.379Z,31.90
2023-02-14T20:49:27.699Z,31.90
2023-02-14T20:51:56.070Z,31.90
2023-02-14T20:54:25.945Z,31.90
2023-02-14T20:56:53.903Z,32.00
2023-02-14T20:59:27.059Z,32.00
2023-02-14T21:01:59.586Z,32.60
2023-02-14T21:04:27.824Z,32.10
2023-02-14T21:06:57.570Z,32.00
2023-02-14T21:09:24.724Z,32.00
2023-02-14T21:11:53.833Z,32.10
2023-02-14T21:14:21.318Z,32.10
2023-02-14T21:16:48.243Z,32.10
2023-02-14T21:19:15.362Z,32.10
2023-02-14T21:21:42.278Z,32.20
2023-02-14T21:24:15.317Z,32.20
2023-02-14T21:26:43.166Z,32.30
2023-02-14T21:29:10.868Z,32.20
2023-02-14T21:31:38.644Z,32.20
2023-02-14T21:34:06.335Z,32.20
2023-02-14T21:36:37.624Z,32.30
2023-02-14T21:39:07.359Z,32.30
2023-02-14T21:41:36.933Z,32.40
2023-02-14T21:44:05.419Z,32.30
2023-02-14T21:46:38.321Z,32.40
2023-02-14T21:49:25.434Z,32.40
2023-02-14T21:51:52.624Z,32.40
2023-02-14T21:54:19.636Z,32.40
2023-02-14T21:56:46.624Z,32.40
2023-02-14T21:59:14.085Z,32.50
2023-02-14T22:01:42.934Z,32.50
2023-02-14T22:04:12.267Z,32.60
2023-02-14T22:06:41.910Z,32.50
2023-02-14T22:09:10.925Z,32.60
2023-02-14T22:11:38.126Z,32.60
2023-02-14T22:14:05.124Z,32.60
2023-02-14T22:16:32.351Z,32.50
2023-02-14T22:18:59.277Z,32.50
2023-02-14T22:21:27.128Z,32.50
2023-02-14T22:23:57.129Z,32.60
2023-02-14T22:26:26.592Z,32.60
2023-02-14T22:29:00.806Z,32.70
2023-02-14T22:31:36.702Z,32.70
2023-02-14T22:34:06.315Z,32.70
2023-02-14T22:36:33.658Z,32.70
2023-02-14T22:39:00.870Z,32.70
2023-02-14T22:41:27.878Z,32.70
2023-02-14T22:43:55.541Z,32.70
2023-02-14T22:46:26.973Z,32.80
2023-02-14T22:48:56.004Z,32.80
2023-02-14T22:51:28.739Z,32.80
2023-02-14T22:54:22.193Z,33.00
2023-02-14T22:56:53.800Z,33.10
2023-02-14T22:59:24.604Z,32.80
2023-02-14T23:01:53.114Z,32.80
2023-02-14T23:04:22.855Z,32.80
2023-02-14T23:06:51.935Z,32.90
2023-02-14T23:09:20.048Z,32.90
2023-02-14T23:11:48.204Z,32.90
2023-02-14T23:14:36.036Z,32.90
2023-02-14T23:17:22.867Z,32.90
2023-02-14T23:20:08.308Z,32.90
2023-02-14T23:22:39.124Z,32.90
2023-02-14T23:25:12.023Z,33.00
2023-02-14T23:27:44.551Z,33.10
2023-02-14T23:30:16.833Z,33.10
2023-02-14T23:32:43.962Z,33.10
2023-02-14T23:35:11.479Z,33.10
2023-02-14T23:37:38.719Z,33.00
2023-02-14T23:40:06.861Z,33.10
2023-02-14T23:42:33.794Z,33.10
2023-02-14T23:45:20.865Z,33.10
2023-02-14T23:47:47.834Z,33.10
2023-02-14T23:50:14.811Z,33.10
2023-02-14T23:52:42.375Z,33.20
2023-02-14T23:55:09.441Z,33.20
2023-02-14T23:57:37.264Z,33.20
